Terminal Aerodrome Forecast
Issued by NWS Sterling, VA

Home | Current Version | Previous Version | Text Only | Print | Product List | Glossary On
Versions: 1 2 3 4 5 6 7 8 9 10 11 12 13 14 15 16 17 18 19 20 21 22
033
FTUS41 KLWX 291120
TAFCHO
TAF
KCHO 291120Z 2912/3012 VRB03KT 1/2SM -DZ FG OVC002
     FM291300 24004KT 2SM -DZ BR BKN015
     FM291400 27005KT P6SM BKN100
     FM291500 29005KT P6SM SCT250
     FM300600 00000KT 4SM BR SCT200=

USA.gov is the U.S. government's official web portal to all federal, state and local government web resources and services.